sensor_id;sensor_type;location;lat;lon;timestamp;pressure;altitude;pressure_sealevel;temperature;humidity
53908;BME280;40469;47.998;7.794;2022-10-16T00:01:29;98787.47;;;15.31;100.00
53908;BME280;40469;47.998;7.794;2022-10-16T00:03:56;98788.25;;;15.35;100.00
53908;BME280;40469;47.998;7.794;2022-10-16T00:06:23;98781.50;;;15.26;100.00
53908;BME280;40469;47.998;7.794;2022-10-16T00:08:49;98790.50;;;15.19;100.00
53908;BME280;40469;47.998;7.794;2022-10-16T00:11:21;98796.47;;;15.24;100.00
53908;BME280;40469;47.998;7.794;2022-10-16T00:13:48;98796.44;;;15.26;100.00
53908;BME280;40469;47.998;7.794;2022-10-16T00:16:14;98798.28;;;15.22;100.00
53908;BME280;40469;47.998;7.794;2022-10-16T00:18:40;98802.50;;;15.28;100.00
53908;BME280;40469;47.998;7.794;2022-10-16T00:21:09;98802.16;;;15.10;100.00
53908;BME280;40469;47.998;7.794;2022-10-16T00:23:35;98801.69;;;14.97;100.00
53908;BME280;40469;47.998;7.794;2022-10-16T00:26:04;98805.06;;;15.01;100.00
53908;BME280;40469;47.998;7.794;2022-10-16T00:28:30;98808.84;;;14.92;100.00
53908;BME280;40469;47.998;7.794;2022-10-16T00:30:56;98812.66;;;14.82;100.00
53908;BME280;40469;47.998;7.794;2022-10-16T00:33:22;98814.25;;;14.88;100.00
53908;BME280;40469;47.998;7.794;2022-10-16T00:35:47;98814.34;;;14.85;100.00
53908;BME280;40469;47.998;7.794;2022-10-16T00:38:13;98810.63;;;14.92;100.00
53908;BME280;40469;47.998;7.794;2022-10-16T00:40:39;98805.69;;;14.81;100.00
53908;BME280;40469;47.998;7.794;2022-10-16T00:43:12;98806.41;;;14.86;100.00
53908;BME280;40469;47.998;7.794;2022-10-16T00:45:39;98810.75;;;14.87;100.00
53908;BME280;40469;47.998;7.794;2022-10-16T00:48:11;98814.19;;;14.89;100.00
53908;BME280;40469;47.998;7.794;2022-10-16T00:50:37;98815.91;;;14.90;100.00
53908;BME280;40469;47.998;7.794;2022-10-16T00:53:04;98814.91;;;14.94;100.00
53908;BME280;40469;47.998;7.794;2022-10-16T00:55:30;98817.34;;;15.02;100.00
53908;BME280;40469;47.998;7.794;2022-10-16T00:57:56;98827.59;;;15.10;100.00
53908;BME280;40469;47.998;7.794;2022-10-16T01:00:25;98840.88;;;15.05;100.00
53908;BME280;40469;47.998;7.794;2022-10-16T01:02:58;98841.81;;;15.04;100.00
53908;BME280;40469;47.998;7.794;2022-10-16T01:05:34;98838.50;;;14.97;100.00
53908;BME280;40469;47.998;7.794;2022-10-16T01:08:22;98835.94;;;14.94;100.00
53908;BME280;40469;47.998;7.794;2022-10-16T01:10:57;98835.38;;;14.85;100.00
53908;BME280;40469;47.998;7.794;2022-10-16T01:13:33;98843.94;;;14.91;100.00
53908;BME280;40469;47.998;7.794;2022-10-16T01:16:09;98841.94;;;15.00;100.00
53908;BME280;40469;47.998;7.794;2022-10-16T01:18:45;98849.13;;;14.93;100.00
53908;BME280;40469;47.998;7.794;2022-10-16T01:21:33;98842.50;;;14.81;100.00
53908;BME280;40469;47.998;7.794;2022-10-16T01:29:48;98848.56;;;14.50;100.00
53908;BME280;40469;47.998;7.794;2022-10-16T01:34:54;98854.06;;;14.41;100.00
53908;BME280;40469;47.998;7.794;2022-10-16T01:40:12;98837.63;;;14.34;100.00
53908;BME280;40469;47.998;7.794;2022-10-16T01:42:42;98823.06;;;14.22;100.00
53908;BME280;40469;47.998;7.794;2022-10-16T01:45:11;98828.44;;;14.18;100.00
53908;BME280;40469;47.998;7.794;2022-10-16T01:47:39;98827.47;;;14.20;100.00
53908;BME280;40469;47.998;7.794;2022-10-16T01:50:07;98832.53;;;14.28;100.00
53908;BME280;40469;47.998;7.794;2022-10-16T01:52:36;98830.53;;;14.36;100.00
53908;BME280;40469;47.998;7.794;2022-10-16T01:55:05;98824.38;;;14.39;100.00
53908;BME280;40469;47.998;7.794;2022-10-16T01:57:33;98813.94;;;14.36;100.00
53908;BME280;40469;47.998;7.794;2022-10-16T02:00:05;98812.75;;;14.48;100.00
53908;BME280;40469;47.998;7.794;2022-10-16T02:02:32;98826.53;;;14.56;100.00
53908;BME280;40469;47.998;7.794;2022-10-16T02:05:03;98820.47;;;14.52;100.00
53908;BME280;40469;47.998;7.794;2022-10-16T02:07:29;98827.44;;;14.55;100.00
53908;BME280;40469;47.998;7.794;2022-10-16T02:09:55;98834.50;;;14.53;100.00
53908;BME280;40469;47.998;7.794;2022-10-16T02:12:27;98836.47;;;14.45;100.00
53908;BME280;40469;47.998;7.794;2022-10-16T02:14:54;98821.50;;;14.47;100.00
53908;BME280;40469;47.998;7.794;2022-10-16T02:17:20;98826.69;;;14.50;100.00
53908;BME280;40469;47.998;7.794;2022-10-16T02:19:48;98828.53;;;14.46;100.00
53908;BME280;40469;47.998;7.794;2022-10-16T02:22:32;98830.97;;;14.52;100.00
53908;BME280;40469;47.998;7.794;2022-10-16T02:25:05;98830.00;;;14.58;100.00
53908;BME280;40469;47.998;7.794;2022-10-16T02:30:04;98834.72;;;14.76;100.00
53908;BME280;40469;47.998;7.794;2022-10-16T02:32:34;98826.25;;;14.67;100.00
53908;BME280;40469;47.998;7.794;2022-10-16T02:35:01;98824.66;;;14.61;100.00
53908;BME280;40469;47.998;7.794;2022-10-16T02:37:28;98824.59;;;14.63;100.00
53908;BME280;40469;47.998;7.794;2022-10-16T02:39:55;98827.88;;;14.71;100.00
53908;BME280;40469;47.998;7.794;2022-10-16T02:42:20;98833.50;;;14.57;100.00
53908;BME280;40469;47.998;7.794;2022-10-16T02:44:52;98841.44;;;14.54;100.00
53908;BME280;40469;47.998;7.794;2022-10-16T02:47:17;98843.97;;;14.60;100.00
53908;BME280;40469;47.998;7.794;2022-10-16T02:49:42;98839.59;;;14.59;100.00
53908;BME280;40469;47.998;7.794;2022-10-16T02:52:08;98844.97;;;14.54;100.00
53908;BME280;40469;47.998;7.794;2022-10-16T02:54:33;98844.81;;;14.60;100.00
53908;BME280;40469;47.998;7.794;2022-10-16T02:56:58;98842.63;;;14.44;100.00
53908;BME280;40469;47.998;7.794;2022-10-16T02:59:24;98856.25;;;14.59;100.00
53908;BME280;40469;47.998;7.794;2022-10-16T03:01:49;98850.03;;;14.62;100.00
53908;BME280;40469;47.998;7.794;2022-10-16T03:04:14;98845.97;;;14.49;100.00
53908;BME280;40469;47.998;7.794;2022-10-16T03:06:40;98849.34;;;14.54;100.00
53908;BME280;40469;47.998;7.794;2022-10-16T03:09:05;98841.50;;;14.52;100.00
53908;BME280;40469;47.998;7.794;2022-10-16T03:11:30;98833.03;;;14.43;100.00
53908;BME280;40469;47.998;7.794;2022-10-16T03:13:56;98846.81;;;14.51;100.00
53908;BME280;40469;47.998;7.794;2022-10-16T03:16:21;98842.06;;;14.32;100.00
53908;BME280;40469;47.998;7.794;2022-10-16T03:18:49;98839.47;;;14.31;100.00
53908;BME280;40469;47.998;7.794;2022-10-16T03:21:15;98838.56;;;14.32;100.00
53908;BME280;40469;47.998;7.794;2022-10-16T03:23:40;98837.72;;;14.31;100.00
53908;BME280;40469;47.998;7.794;2022-10-16T03:26:06;98830.00;;;14.25;100.00
53908;BME280;40469;47.998;7.794;2022-10-16T03:28:31;98833.00;;;14.10;100.00
53908;BME280;40469;47.998;7.794;2022-10-16T03:30:56;98823.41;;;14.10;100.00
53908;BME280;40469;47.998;7.794;2022-10-16T03:33:22;98832.28;;;14.04;100.00
53908;BME280;40469;47.998;7.794;2022-10-16T03:35:51;98833.78;;;14.13;100.00
53908;BME280;40469;47.998;7.794;2022-10-16T03:38:18;98838.97;;;14.16;100.00
53908;BME280;40469;47.998;7.794;2022-10-16T03:40:43;98842.38;;;14.20;100.00
53908;BME280;40469;47.998;7.794;2022-10-16T03:43:08;98842.31;;;14.23;100.00
53908;BME280;40469;47.998;7.794;2022-10-16T03:45:34;98846.63;;;14.24;100.00
53908;BME280;40469;47.998;7.794;2022-10-16T03:47:59;98843.91;;;14.29;100.00
53908;BME280;40469;47.998;7.794;2022-10-16T03:50:24;98847.78;;;14.47;100.00
53908;BME280;40469;47.998;7.794;2022-10-16T03:52:50;98847.56;;;14.56;100.00
53908;BME280;40469;47.998;7.794;2022-10-16T03:55:15;98849.38;;;14.52;100.00
53908;BME280;40469;47.998;7.794;2022-10-16T03:57:41;98838.28;;;14.43;100.00
53908;BME280;40469;47.998;7.794;2022-10-16T04:00:06;98845.44;;;14.36;100.00
53908;BME280;40469;47.998;7.794;2022-10-16T04:02:32;98832.13;;;14.44;100.00
53908;BME280;40469;47.998;7.794;2022-10-16T04:04:57;98843.44;;;14.46;100.00
53908;BME280;40469;47.998;7.794;2022-10-16T04:07:22;98843.31;;;14.50;100.00
53908;BME280;40469;47.998;7.794;2022-10-16T04:09:48;98846.59;;;14.60;100.00
53908;BME280;40469;47.998;7.794;2022-10-16T04:12:13;98847.34;;;14.64;100.00
53908;BME280;40469;47.998;7.794;2022-10-16T04:14:38;98846.31;;;14.69;100.00
53908;BME280;40469;47.998;7.794;2022-10-16T04:17:04;98844.53;;;14.70;100.00
53908;BME280;40469;47.998;7.794;2022-10-16T04:19:29;98842.75;;;14.72;100.00
53908;BME280;40469;47.998;7.794;2022-10-16T04:21:55;98852.34;;;14.73;100.00
53908;BME280;40469;47.998;7.794;2022-10-16T04:24:20;98852.06;;;14.82;100.00
53908;BME280;40469;47.998;7.794;2022-10-16T04:26:45;98853.81;;;14.83;100.00
53908;BME280;40469;47.998;7.794;2022-10-16T04:29:11;98851.88;;;14.90;100.00
53908;BME280;40469;47.998;7.794;2022-10-16T04:31:36;98853.44;;;14.95;100.00
53908;BME280;40469;47.998;7.794;2022-10-16T04:34:01;98844.59;;;14.98;100.00
53908;BME280;40469;47.998;7.794;2022-10-16T04:36:27;98841.97;;;14.98;100.00
53908;BME280;40469;47.998;7.794;2022-10-16T04:38:52;98845.16;;;15.09;100.00
53908;BME280;40469;47.998;7.794;2022-10-16T04:41:17;98848.72;;;15.07;100.00
53908;BME280;40469;47.998;7.794;2022-10-16T04:43:43;98849.59;;;15.07;100.00
53908;BME280;40469;47.998;7.794;2022-10-16T04:46:08;98844.22;;;15.10;100.00
53908;BME280;40469;47.998;7.794;2022-10-16T04:48:35;98841.34;;;15.20;100.00
53908;BME280;40469;47.998;7.794;2022-10-16T04:51:00;98834.78;;;15.33;100.00
53908;BME280;40469;47.998;7.794;2022-10-16T04:53:25;98830.38;;;15.33;100.00
53908;BME280;40469;47.998;7.794;2022-10-16T04:55:51;98828.72;;;15.31;100.00
53908;BME280;40469;47.998;7.794;2022-10-16T04:58:16;98840.00;;;15.34;100.00
53908;BME280;40469;47.998;7.794;2022-10-16T05:00:42;98849.66;;;15.34;100.00
53908;BME280;40469;47.998;7.794;2022-10-16T05:03:08;98849.63;;;15.35;100.00
53908;BME280;40469;47.998;7.794;2022-10-16T05:05:35;98855.81;;;15.33;100.00
53908;BME280;40469;47.998;7.794;2022-10-16T05:08:01;98860.03;;;15.39;100.00
53908;BME280;40469;47.998;7.794;2022-10-16T05:10:27;98858.31;;;15.38;100.00
53908;BME280;40469;47.998;7.794;2022-10-16T05:12:54;98860.91;;;15.39;100.00
53908;BME280;40469;47.998;7.794;2022-10-16T05:15:20;98870.22;;;15.49;100.00
53908;BME280;40469;47.998;7.794;2022-10-16T05:17:45;98877.94;;;15.55;100.00
53908;BME280;40469;47.998;7.794;2022-10-16T05:20:11;98880.56;;;15.55;100.00
53908;BME280;40469;47.998;7.794;2022-10-16T05:22:36;98872.97;;;15.46;100.00
53908;BME280;40469;47.998;7.794;2022-10-16T05:25:02;98868.16;;;15.31;100.00
53908;BME280;40469;47.998;7.794;2022-10-16T05:27:27;98884.28;;;15.20;100.00
53908;BME280;40469;47.998;7.794;2022-10-16T05:29:53;98894.81;;;15.20;100.00
53908;BME280;40469;47.998;7.794;2022-10-16T05:32:18;98885.28;;;14.86;100.00
53908;BME280;40469;47.998;7.794;2022-10-16T05:34:44;98893.31;;;14.80;100.00
53908;BME280;40469;47.998;7.794;2022-10-16T05:37:10;98881.09;;;14.79;100.00
53908;BME280;40469;47.998;7.794;2022-10-16T05:39:37;98881.91;;;14.81;100.00
53908;BME280;40469;47.998;7.794;2022-10-16T05:42:03;98880.56;;;14.97;100.00
53908;BME280;40469;47.998;7.794;2022-10-16T05:44:28;98878.53;;;15.07;100.00
53908;BME280;40469;47.998;7.794;2022-10-16T05:46:54;98879.09;;;15.17;100.00
53908;BME280;40469;47.998;7.794;2022-10-16T05:49:20;98885.13;;;15.21;100.00
53908;BME280;40469;47.998;7.794;2022-10-16T05:51:45;98880.81;;;15.20;100.00
53908;BME280;40469;47.998;7.794;2022-10-16T05:54:10;98878.94;;;15.23;100.00
53908;BME280;40469;47.998;7.794;2022-10-16T05:56:36;98885.94;;;15.23;100.00
53908;BME280;40469;47.998;7.794;2022-10-16T05:59:03;98891.13;;;15.26;100.00
53908;BME280;40469;47.998;7.794;2022-10-16T06:01:29;98890.41;;;15.21;100.00
53908;BME280;40469;47.998;7.794;2022-10-16T06:03:56;98889.41;;;15.25;100.00
53908;BME280;40469;47.998;7.794;2022-10-16T06:06:25;98879.97;;;15.17;100.00
53908;BME280;40469;47.998;7.794;2022-10-16T06:08:52;98892.94;;;15.24;100.00
53908;BME280;40469;47.998;7.794;2022-10-16T06:11:24;98898.97;;;15.27;100.00
53908;BME280;40469;47.998;7.794;2022-10-16T06:13:50;98898.13;;;15.27;100.00
53908;BME280;40469;47.998;7.794;2022-10-16T06:16:16;98905.00;;;15.31;100.00
53908;BME280;40469;47.998;7.794;2022-10-16T06:18:42;98917.78;;;15.43;100.00
53908;BME280;40469;47.998;7.794;2022-10-16T06:21:16;98911.66;;;15.43;100.00
53908;BME280;40469;47.998;7.794;2022-10-16T06:23:42;98929.19;;;15.42;100.00
53908;BME280;40469;47.998;7.794;2022-10-16T06:26:10;98929.13;;;15.45;100.00
53908;BME280;40469;47.998;7.794;2022-10-16T06:28:36;98942.69;;;15.31;100.00
53908;BME280;40469;47.998;7.794;2022-10-16T06:31:02;98947.22;;;15.26;100.00
53908;BME280;40469;47.998;7.794;2022-10-16T06:33:29;98944.97;;;15.42;100.00
53908;BME280;40469;47.998;7.794;2022-10-16T06:36:03;98946.47;;;15.21;100.00
53908;BME280;40469;47.998;7.794;2022-10-16T06:38:29;98966.72;;;15.19;100.00
53908;BME280;40469;47.998;7.794;2022-10-16T06:40:54;98967.31;;;15.29;100.00
53908;BME280;40469;47.998;7.794;2022-10-16T06:43:20;98958.94;;;15.16;100.00
53908;BME280;40469;47.998;7.794;2022-10-16T06:45:55;98953.16;;;15.02;100.00
53908;BME280;40469;47.998;7.794;2022-10-16T06:48:22;98962.63;;;15.09;100.00
53908;BME280;40469;47.998;7.794;2022-10-16T06:51:04;98962.78;;;15.03;100.00
53908;BME280;40469;47.998;7.794;2022-10-16T06:53:32;98964.66;;;14.99;100.00
53908;BME280;40469;47.998;7.794;2022-10-16T06:55:57;98976.56;;;15.12;100.00
53908;BME280;40469;47.998;7.794;2022-10-16T06:58:23;98989.44;;;14.90;100.00
53908;BME280;40469;47.998;7.794;2022-10-16T07:00:54;98981.09;;;15.07;100.00
53908;BME280;40469;47.998;7.794;2022-10-16T07:03:20;98999.53;;;15.06;100.00
53908;BME280;40469;47.998;7.794;2022-10-16T07:05:45;98987.53;;;14.95;100.00
53908;BME280;40469;47.998;7.794;2022-10-16T07:08:10;98998.19;;;14.89;100.00
53908;BME280;40469;47.998;7.794;2022-10-16T07:10:36;99004.06;;;15.01;100.00
53908;BME280;40469;47.998;7.794;2022-10-16T07:13:02;98998.97;;;14.93;100.00
53908;BME280;40469;47.998;7.794;2022-10-16T07:15:27;98992.78;;;14.95;100.00
53908;BME280;40469;47.998;7.794;2022-10-16T07:17:53;99007.34;;;15.09;100.00
53908;BME280;40469;47.998;7.794;2022-10-16T07:20:19;98998.41;;;15.14;100.00
53908;BME280;40469;47.998;7.794;2022-10-16T07:22:44;99001.72;;;15.21;100.00
53908;BME280;40469;47.998;7.794;2022-10-16T07:25:09;99023.72;;;15.19;100.00
53908;BME280;40469;47.998;7.794;2022-10-16T07:27:36;99024.72;;;15.14;100.00
53908;BME280;40469;47.998;7.794;2022-10-16T07:30:01;99022.94;;;15.15;100.00
53908;BME280;40469;47.998;7.794;2022-10-16T07:32:27;99021.75;;;15.27;100.00
53908;BME280;40469;47.998;7.794;2022-10-16T07:34:53;99016.09;;;15.41;100.00
53908;BME280;40469;47.998;7.794;2022-10-16T07:37:18;99021.44;;;15.38;100.00
53908;BME280;40469;47.998;7.794;2022-10-16T07:39:43;99025.56;;;15.46;100.00
53908;BME280;40469;47.998;7.794;2022-10-16T07:42:09;99029.78;;;15.52;100.00
53908;BME280;40469;47.998;7.794;2022-10-16T07:44:34;99039.13;;;15.64;100.00
53908;BME280;40469;47.998;7.794;2022-10-16T07:46:59;99032.84;;;15.68;100.00
53908;BME280;40469;47.998;7.794;2022-10-16T07:49:25;99049.03;;;15.85;100.00
53908;BME280;40469;47.998;7.794;2022-10-16T07:51:50;99058.38;;;15.96;100.00
53908;BME280;40469;47.998;7.794;2022-10-16T07:54:16;99045.31;;;15.92;100.00
53908;BME280;40469;47.998;7.794;2022-10-16T07:56:41;99039.84;;;15.99;100.00
53908;BME280;40469;47.998;7.794;2022-10-16T07:59:06;99033.28;;;16.12;100.00
53908;BME280;40469;47.998;7.794;2022-10-16T08:01:32;99045.31;;;16.21;100.00
53908;BME280;40469;47.998;7.794;2022-10-16T08:03:57;99046.03;;;16.26;100.00
53908;BME280;40469;47.998;7.794;2022-10-16T08:06:22;99055.41;;;16.35;100.00
53908;BME280;40469;47.998;7.794;2022-10-16T08:08:48;99049.59;;;16.52;100.00
53908;BME280;40469;47.998;7.794;2022-10-16T08:11:14;99047.56;;;16.60;100.00
53908;BME280;40469;47.998;7.794;2022-10-16T08:13:40;99043.72;;;16.70;100.00
53908;BME280;40469;47.998;7.794;2022-10-16T08:16:06;99051.06;;;16.87;100.00
53908;BME280;40469;47.998;7.794;2022-10-16T08:18:42;99043.78;;;16.95;100.00
53908;BME280;40469;47.998;7.794;2022-10-16T08:21:12;99042.63;;;17.02;100.00
53908;BME280;40469;47.998;7.794;2022-10-16T08:23:38;99040.41;;;17.15;100.00
53908;BME280;40469;47.998;7.794;2022-10-16T08:26:07;99039.41;;;17.19;100.00
53908;BME280;40469;47.998;7.794;2022-10-16T08:28:33;99043.31;;;17.33;100.00
53908;BME280;40469;47.998;7.794;2022-10-16T08:31:10;99047.94;;;17.51;100.00
53908;BME280;40469;47.998;7.794;2022-10-16T08:33:36;99040.63;;;17.59;100.00
53908;BME280;40469;47.998;7.794;2022-10-16T08:36:03;99046.56;;;17.65;100.00
53908;BME280;40469;47.998;7.794;2022-10-16T08:38:29;99041.16;;;17.68;100.00
53908;BME280;40469;47.998;7.794;2022-10-16T08:41:13;99040.06;;;17.73;100.00
53908;BME280;40469;47.998;7.794;2022-10-16T08:44:07;99041.66;;;17.79;100.00
53908;BME280;40469;47.998;7.794;2022-10-16T08:49:11;99031.09;;;17.79;100.00
53908;BME280;40469;47.998;7.794;2022-10-16T08:51:39;99044.75;;;17.90;100.00
53908;BME280;40469;47.998;7.794;2022-10-16T08:54:11;99048.94;;;17.96;100.00
53908;BME280;40469;47.998;7.794;2022-10-16T08:56:40;99063.50;;;17.83;100.00
53908;BME280;40469;47.998;7.794;2022-10-16T08:59:09;99059.19;;;17.80;100.00
53908;BME280;40469;47.998;7.794;2022-10-16T09:01:44;99061.50;;;17.89;100.00
53908;BME280;40469;47.998;7.794;2022-10-16T09:04:41;99063.19;;;17.92;100.00
53908;BME280;40469;47.998;7.794;2022-10-16T09:07:11;99069.38;;;18.14;100.00
53908;BME280;40469;47.998;7.794;2022-10-16T09:10:06;99072.00;;;18.36;100.00
53908;BME280;40469;47.998;7.794;2022-10-16T09:12:40;99069.13;;;18.43;100.00
53908;BME280;40469;47.998;7.794;2022-10-16T09:15:28;99070.66;;;18.48;100.00
53908;BME280;40469;47.998;7.794;2022-10-16T09:18:01;99068.25;;;18.64;100.00
53908;BME280;40469;47.998;7.794;2022-10-16T09:23:18;99080.13;;;19.19;100.00
53908;BME280;40469;47.998;7.794;2022-10-16T09:25:48;99079.78;;;19.47;100.00
53908;BME280;40469;47.998;7.794;2022-10-16T09:28:15;99080.53;;;19.69;100.00
53908;BME280;40469;47.998;7.794;2022-10-16T09:30:41;99081.56;;;19.86;100.00
53908;BME280;40469;47.998;7.794;2022-10-16T09:33:07;99079.53;;;20.48;100.00
53908;BME280;40469;47.998;7.794;2022-10-16T09:38:05;99077.19;;;21.13;100.00
53908;BME280;40469;47.998;7.794;2022-10-16T09:40:38;99075.25;;;21.17;100.00
53908;BME280;40469;47.998;7.794;2022-10-16T09:43:19;99064.00;;;21.96;100.00
53908;BME280;40469;47.998;7.794;2022-10-16T09:48:21;99062.91;;;22.78;100.00
53908;BME280;40469;47.998;7.794;2022-10-16T09:50:58;99068.78;;;22.99;100.00
53908;BME280;40469;47.998;7.794;2022-10-16T09:53:26;99063.00;;;23.37;100.00
53908;BME280;40469;47.998;7.794;2022-10-16T09:56:02;99058.66;;;23.06;100.00
53908;BME280;40469;47.998;7.794;2022-10-16T09:58:29;99068.41;;;22.91;100.00
53908;BME280;40469;47.998;7.794;2022-10-16T10:00:54;99064.69;;;22.94;100.00
53908;BME280;40469;47.998;7.794;2022-10-16T10:03:38;99058.00;;;22.56;100.00
53908;BME280;40469;47.998;7.794;2022-10-16T10:06:17;99061.16;;;22.63;100.00
53908;BME280;40469;47.998;7.794;2022-10-16T10:09:03;99062.03;;;22.63;100.00
53908;BME280;40469;47.998;7.794;2022-10-16T10:11:47;99068.19;;;22.94;100.00
53908;BME280;40469;47.998;7.794;2022-10-16T10:14:30;99061.06;;;23.11;100.00
53908;BME280;40469;47.998;7.794;2022-10-16T10:19:30;99068.59;;;23.02;100.00
53908;BME280;40469;47.998;7.794;2022-10-16T10:22:15;99070.84;;;22.94;100.00
53908;BME280;40469;47.998;7.794;2022-10-16T10:24:41;99077.75;;;22.98;100.00
53908;BME280;40469;47.998;7.794;2022-10-16T10:27:14;99067.09;;;22.98;100.00
53908;BME280;40469;47.998;7.794;2022-10-16T10:35:13;99059.88;;;22.70;100.00
53908;BME280;40469;47.998;7.794;2022-10-16T10:40:45;99059.69;;;23.03;100.00
53908;BME280;40469;47.998;7.794;2022-10-16T10:45:59;99059.59;;;23.64;100.00
53908;BME280;40469;47.998;7.794;2022-10-16T10:49:05;99064.66;;;23.69;100.00
53908;BME280;40469;47.998;7.794;2022-10-16T10:54:43;99055.00;;;23.37;100.00
53908;BME280;40469;47.998;7.794;2022-10-16T10:57:27;99055.41;;;23.45;100.00
53908;BME280;40469;47.998;7.794;2022-10-16T11:00:03;99050.75;;;23.49;100.00
53908;BME280;40469;47.998;7.794;2022-10-16T11:02:48;99057.94;;;23.47;100.00
53908;BME280;40469;47.998;7.794;2022-10-16T11:05:45;99054.84;;;23.40;100.00
53908;BME280;40469;47.998;7.794;2022-10-16T11:08:20;99063.88;;;23.52;100.00
53908;BME280;40469;47.998;7.794;2022-10-16T11:10:51;99057.94;;;23.47;100.00
53908;BME280;40469;47.998;7.794;2022-10-16T11:16:03;99058.75;;;23.63;100.00
53908;BME280;40469;47.998;7.794;2022-10-16T11:21:07;99043.88;;;23.45;100.00
53908;BME280;40469;47.998;7.794;2022-10-16T11:23:51;99042.56;;;23.66;100.00
53908;BME280;40469;47.998;7.794;2022-10-16T11:26:23;99043.59;;;23.64;100.00
53908;BME280;40469;47.998;7.794;2022-10-16T11:28:53;99044.00;;;23.87;100.00
53908;BME280;40469;47.998;7.794;2022-10-16T11:31:36;99041.25;;;23.88;100.00
53908;BME280;40469;47.998;7.794;2022-10-16T11:34:09;99047.22;;;23.77;100.00
53908;BME280;40469;47.998;7.794;2022-10-16T11:36:47;99044.28;;;23.82;100.00
53908;BME280;40469;47.998;7.794;2022-10-16T11:39:19;99049.44;;;23.85;100.00
53908;BME280;40469;47.998;7.794;2022-10-16T11:41:51;99043.69;;;23.77;100.00
53908;BME280;40469;47.998;7.794;2022-10-16T11:49:33;99043.28;;;24.53;100.00
53908;BME280;40469;47.998;7.794;2022-10-16T11:52:06;99031.19;;;25.01;100.00
53908;BME280;40469;47.998;7.794;2022-10-16T11:57:21;99031.06;;;25.29;100.00
53908;BME280;40469;47.998;7.794;2022-10-16T11:59:52;99024.09;;;25.27;100.00
53908;BME280;40469;47.998;7.794;2022-10-16T12:05:06;99028.22;;;25.69;100.00
53908;BME280;40469;47.998;7.794;2022-10-16T12:07:41;99023.44;;;25.62;100.00
53908;BME280;40469;47.998;7.794;2022-10-16T12:10:24;99023.97;;;25.67;100.00
53908;BME280;40469;47.998;7.794;2022-10-16T12:12:49;99025.84;;;25.90;100.00
53908;BME280;40469;47.998;7.794;2022-10-16T12:15:22;99014.59;;;25.48;100.00
53908;BME280;40469;47.998;7.794;2022-10-16T12:17:48;99013.53;;;25.38;100.00
53908;BME280;40469;47.998;7.794;2022-10-16T12:23:00;99010.88;;;25.88;100.00
53908;BME280;40469;47.998;7.794;2022-10-16T12:25:39;99019.47;;;25.67;100.00
53908;BME280;40469;47.998;7.794;2022-10-16T12:30:40;99027.41;;;25.30;100.00
53908;BME280;40469;47.998;7.794;2022-10-16T12:33:19;99017.03;;;25.51;100.00
53908;BME280;40469;47.998;7.794;2022-10-16T12:35:46;99003.47;;;25.42;100.00
53908;BME280;40469;47.998;7.794;2022-10-16T12:38:19;99009.22;;;25.61;100.00
53908;BME280;40469;47.998;7.794;2022-10-16T12:40:47;99005.41;;;25.40;100.00
53908;BME280;40469;47.998;7.794;2022-10-16T12:45:45;99001.06;;;25.76;100.00
53908;BME280;40469;47.998;7.794;2022-10-16T12:48:20;98994.75;;;25.77;100.00
53908;BME280;40469;47.998;7.794;2022-10-16T12:50:47;98997.59;;;25.86;100.00
53908;BME280;40469;47.998;7.794;2022-10-16T12:53:26;98993.50;;;25.57;100.00
53908;BME280;40469;47.998;7.794;2022-10-16T12:56:11;98992.16;;;25.88;100.00
53908;BME280;40469;47.998;7.794;2022-10-16T12:59:08;98995.56;;;26.27;100.00
53908;BME280;40469;47.998;7.794;2022-10-16T13:07:20;98987.44;;;26.88;93.70
53908;BME280;40469;47.998;7.794;2022-10-16T13:12:41;98991.91;;;26.88;95.19
53908;BME280;40469;47.998;7.794;2022-10-16T13:15:19;98997.72;;;27.05;85.72
53908;BME280;40469;47.998;7.794;2022-10-16T13:18:08;98994.25;;;26.92;88.94
53908;BME280;40469;47.998;7.794;2022-10-16T13:23:27;98986.19;;;26.45;97.14
53908;BME280;40469;47.998;7.794;2022-10-16T13:28:32;98991.94;;;26.28;94.15
53908;BME280;40469;47.998;7.794;2022-10-16T13:30:59;98987.81;;;26.35;95.00
53908;BME280;40469;47.998;7.794;2022-10-16T13:35:58;98983.38;;;26.23;95.47
53908;BME280;40469;47.998;7.794;2022-10-16T13:38:28;98985.94;;;26.73;85.36
53908;BME280;40469;47.998;7.794;2022-10-16T13:40:59;98991.16;;;26.74;87.11
53908;BME280;40469;47.998;7.794;2022-10-16T13:43:37;98989.19;;;26.41;93.02
53908;BME280;40469;47.998;7.794;2022-10-16T13:46:10;99000.19;;;26.49;91.47
53908;BME280;40469;47.998;7.794;2022-10-16T13:48:37;98992.94;;;26.62;89.76
53908;BME280;40469;47.998;7.794;2022-10-16T13:51:17;98992.09;;;26.62;87.61
53908;BME280;40469;47.998;7.794;2022-10-16T13:53:44;98992.41;;;26.57;90.32
53908;BME280;40469;47.998;7.794;2022-10-16T13:56:12;98991.19;;;26.02;100.00
53908;BME280;40469;47.998;7.794;2022-10-16T13:58:38;98988.03;;;25.07;100.00
53908;BME280;40469;47.998;7.794;2022-10-16T14:01:23;98990.53;;;25.35;100.00
53908;BME280;40469;47.998;7.794;2022-10-16T14:03:51;98985.81;;;25.52;100.00
53908;BME280;40469;47.998;7.794;2022-10-16T14:06:20;98987.88;;;25.48;100.00
53908;BME280;40469;47.998;7.794;2022-10-16T14:08:59;98987.19;;;25.45;100.00
53908;BME280;40469;47.998;7.794;2022-10-16T14:11:26;98989.25;;;25.54;100.00
53908;BME280;40469;47.998;7.794;2022-10-16T14:13:52;98986.75;;;25.12;100.00
53908;BME280;40469;47.998;7.794;2022-10-16T14:16:23;98986.00;;;24.45;100.00
53908;BME280;40469;47.998;7.794;2022-10-16T14:18:57;98992.06;;;24.19;100.00
53908;BME280;40469;47.998;7.794;2022-10-16T14:21:23;98980.16;;;24.25;100.00
53908;BME280;40469;47.998;7.794;2022-10-16T14:23:49;98993.00;;;24.06;100.00